Lakeside, Colorado
Current Conditions -  °F | °C
As of 5:35 AM on Saturday 25 Oct 2014 (Local Time) from KBJC Reporting Station
Clear Clear  
Wind Chill: 55°   Ceiling: Unl
Heat Index: 55°   Visibility: 10mi
Dew Point: 21°   Wind: 3mph
Humidity: 26%   Direction: 200°SSW
Pressure: 30.23"   Gusts: NA
Location:  39.775°N, 105.049°W
Report Text: KBJC 251135Z AUTO 20003KT 10SM CLR 13/M06 A3023 RMK AO2
Loading
Personal Weather Stations






























Interactive Weather Map
Tropical Storm Tracking
New forecast layout! Learn more

10-Day Weather Forecast

Advertisements
Track Severe Weather on mobile